Time;durP1;ratioP1;P1;durP2;ratioP2;P2;SDS_P1;SDS_P2;PMS_P1;PMS_P2;Temp;Humidity;BMP_temperature;BMP_pressure;BME280_temperature;BME280_humidity;BME280_pressure;Samples;Min_cycle;Max_cycle;Signal;HPM_P1;HPM_P2
2023/08/19 00:01:12;;;;;;;98.57;29.08;;;19.40;99.90;;;18.55;100.00;101523.06;4954514;28;20074;-80
2023/08/19 00:03:38;;;;;;;349.95;37.85;;;19.50;99.90;;;18.59;100.00;101527.19;4967404;28;20037;-78
2023/08/19 00:06:30;;;;;;;137.18;30.55;;;19.50;99.90;;;18.64;100.00;101534.91;4972102;28;20059;-80
2023/08/19 00:08:56;;;;;;;417.20;42.38;;;19.60;99.90;;;18.70;100.00;101522.94;4968211;28;20742;-78
2023/08/19 00:11:21;;;;;;;414.02;43.30;;;19.50;99.90;;;18.73;100.00;101533.44;4952688;28;20034;-78
2023/08/19 00:13:47;;;;;;;185.40;34.85;;;19.60;99.90;;;18.76;100.00;101522.53;4964412;28;20435;-78
2023/08/19 00:16:15;;;;;;;213.02;35.72;;;19.60;99.90;;;18.73;100.00;101528.09;4945066;28;20054;-81
2023/08/19 00:18:41;;;;;;;242.05;34.05;;;19.60;99.90;;;18.67;100.00;101523.16;4951989;28;20384;-81
2023/08/19 00:21:07;;;;;;;210.57;37.03;;;19.60;99.90;;;18.64;100.00;101525.09;4941212;28;20170;-78
2023/08/19 00:23:32;;;;;;;327.30;43.05;;;19.60;99.90;;;18.69;100.00;101529.25;4957404;28;20487;-81
2023/08/19 00:25:58;;;;;;;169.85;36.03;;;19.60;99.90;;;18.69;100.00;101532.78;4957069;28;20138;-79
2023/08/19 00:28:25;;;;;;;213.95;37.22;;;19.60;99.90;;;18.69;100.00;101532.78;4969840;28;20093;-79
2023/08/19 00:30:51;;;;;;;206.68;40.70;;;19.60;99.90;;;18.78;100.00;101528.66;4948288;28;20118;-80
2023/08/19 00:33:24;;;;;;;394.10;49.65;;;19.60;99.90;;;18.74;100.00;101527.13;4958138;28;20110;-79
2023/08/19 00:35:53;;;;;;;206.70;38.05;;;19.60;99.90;;;18.77;100.00;101527.78;4954027;28;20546;-79
2023/08/19 00:38:19;;;;;;;177.80;38.97;;;19.60;99.90;;;18.74;100.00;101530.63;4952240;28;20587;-78
2023/08/19 00:40:50;;;;;;;228.85;41.42;;;19.60;99.90;;;18.71;100.00;101530.00;4939336;28;20035;-78
2023/08/19 00:43:16;;;;;;;298.17;41.47;;;19.60;99.90;;;18.75;100.00;101527.03;4938212;28;20051;-78
2023/08/19 00:45:56;;;;;;;298.48;44.05;;;19.60;99.90;;;18.72;100.00;101516.53;4956723;28;20515;-81
2023/08/19 00:48:25;;;;;;;245.52;40.70;;;19.60;99.90;;;18.72;100.00;101521.88;4944109;28;20032;-80
2023/08/19 00:50:58;;;;;;;186.32;37.00;;;19.60;99.90;;;18.79;100.00;101511.66;4964857;28;20038;-81
2023/08/19 00:53:24;;;;;;;316.58;43.42;;;19.60;99.90;;;18.79;100.00;101514.34;4940149;28;20034;-80
2023/08/19 00:55:52;;;;;;;428.95;49.20;;;19.60;99.90;;;18.79;100.00;101507.22;4957679;28;20554;-80
2023/08/19 00:58:18;;;;;;;283.40;40.75;;;19.60;99.90;;;18.73;100.00;101512.09;4939598;28;20472;-78
2023/08/19 01:00:48;;;;;;;129.43;32.92;;;19.60;99.90;;;18.71;100.00;101517.53;4964660;28;20027;-80
2023/08/19 01:03:14;;;;;;;72.53;30.63;;;19.60;99.90;;;18.73;100.00;101517.41;4939619;28;20483;-80
2023/08/19 01:05:46;;;;;;;160.88;35.70;;;19.60;99.90;;;18.74;100.00;101519.13;4957657;28;20046;-81
2023/08/19 01:08:20;;;;;;;159.68;34.42;;;19.60;99.90;;;18.78;100.00;101517.97;4967046;28;20042;-81
2023/08/19 01:11:37;;;;;;;249.57;37.08;;;19.60;99.90;;;18.79;100.00;101511.66;4957365;28;20034;-78
2023/08/19 01:14:15;;;;;;;382.65;44.95;;;19.60;99.90;;;18.75;100.00;101504.84;4941305;28;20039;-80
2023/08/19 01:16:46;;;;;;;138.35;31.63;;;19.50;99.90;;;18.68;100.00;101514.19;4951591;28;20026;-80
2023/08/19 01:19:31;;;;;;;307.85;38.97;;;19.50;99.90;;;18.69;100.00;101499.91;4968368;28;20054;-81
2023/08/19 01:22:10;;;;;;;197.98;31.80;;;19.50;99.90;;;18.70;100.00;101496.28;4969056;28;20025;-79
2023/08/19 01:24:40;;;;;;;114.20;30.33;;;19.50;99.90;;;18.70;100.00;101494.44;4955929;28;20030;-78
2023/08/19 01:27:22;;;;;;;109.28;29.20;;;19.50;99.90;;;18.73;100.00;101504.09;4963792;28;20093;-78
2023/08/19 01:29:47;;;;;;;144.27;25.38;;;19.50;99.90;;;18.70;100.00;101502.47;4950109;28;20027;-78
2023/08/19 01:32:17;;;;;;;225.65;32.20;;;19.50;99.90;;;18.70;100.00;101502.47;4961516;28;20079;-80
2023/08/19 01:34:43;;;;;;;479.77;45.88;;;19.50;99.90;;;18.70;100.00;101498.94;4947887;28;20082;-80
2023/08/19 01:37:27;;;;;;;192.38;26.50;;;19.40;99.90;;;18.62;100.00;101495.00;4964316;28;20023;-78
2023/08/19 01:40:03;;;;;;;422.40;37.88;;;19.40;99.90;;;18.52;100.00;101493.06;4965825;28;20027;-81
2023/08/19 01:42:29;;;;;;;;;;;19.40;99.90;;;18.49;100.00;101488.78;4955367;28;20031;-79
2023/08/19 01:44:56;;;;;;;465.48;33.65;;;19.40;99.90;;;18.49;100.00;101494.13;4954502;28;20544;-78
2023/08/19 01:47:22;;;;;;;304.98;29.50;;;19.30;99.90;;;18.48;100.00;101486.22;4956271;28;20057;-83
2023/08/19 01:49:50;;;;;;;110.55;26.25;;;19.30;99.90;;;18.49;100.00;101483.47;4945854;28;20066;-78
2023/08/19 01:52:18;;;;;;;280.98;32.97;;;19.30;99.90;;;18.47;100.00;101473.88;4964629;28;20395;-79
2023/08/19 01:54:44;;;;;;;427.48;40.60;;;19.30;99.90;;;18.43;100.00;101479.38;4954481;28;20027;-78
2023/08/19 01:57:10;;;;;;;326.23;33.70;;;19.20;99.90;;;18.40;100.00;101484.06;4968252;28;20094;-79
2023/08/19 01:59:36;;;;;;;400.63;37.03;;;19.20;99.90;;;18.36;100.00;101488.78;4936724;28;20106;-79
2023/08/19 02:02:02;;;;;;;444.15;42.45;;;19.20;99.90;;;18.35;100.00;101487.03;4962722;28;20038;-81
2023/08/19 02:04:35;;;;;;;369.42;36.40;;;19.20;99.90;;;18.34;100.00;101489.84;4954481;28;20031;-80
2023/08/19 02:07:01;;;;;;;415.17;34.88;;;19.20;99.90;;;18.19;100.00;101497.88;4962544;28;20035;-81
2023/08/19 02:09:28;;;;;;;257.23;27.80;;;19.10;99.90;;;18.15;100.00;101503.53;4962464;28;20094;-79
2023/08/19 02:11:55;;;;;;;391.60;34.38;;;19.00;99.90;;;18.07;100.00;101497.84;4955414;28;20722;-79
2023/08/19 02:14:21;;;;;;;382.75;29.73;;;19.00;99.90;;;18.00;100.00;101502.72;4955593;28;20101;-83
2023/08/19 02:16:49;;;;;;;501.58;34.10;;;19.00;99.90;;;17.98;100.00;101497.50;4952605;28;20032;-79
2023/08/19 02:19:15;;;;;;;674.55;41.83;;;18.90;99.90;;;17.95;100.00;101488.88;4950471;28;20403;-79
2023/08/19 02:21:41;;;;;;;551.60;39.28;;;18.90;99.90;;;17.95;100.00;101492.38;4953841;28;20034;-79
2023/08/19 02:24:08;;;;;;;430.90;37.25;;;18.90;99.90;;;17.99;100.00;101487.69;4934919;28;20043;-78
2023/08/19 02:26:34;;;;;;;787.10;61.00;;;18.90;99.90;;;17.93;100.00;101483.63;4953866;28;20759;-80
2023/08/19 02:28:59;;;;;;;445.92;38.78;;;18.80;99.90;;;17.96;100.00;101485.22;4954496;28;20054;-79
2023/08/19 02:31:31;;;;;;;379.88;35.25;;;18.80;99.90;;;17.96;100.00;101485.22;4951831;28;20042;-79
2023/08/19 02:33:57;;;;;;;427.02;35.88;;;18.80;99.90;;;17.88;100.00;101467.06;4949860;28;20041;-79
2023/08/19 02:36:22;;;;;;;475.65;38.65;;;18.80;99.90;;;17.86;100.00;101470.78;4954875;28;20031;-81
2023/08/19 02:38:48;;;;;;;295.05;36.75;;;18.80;99.90;;;17.86;100.00;101463.69;4962749;28;20031;-79
2023/08/19 02:41:14;;;;;;;185.13;28.27;;;18.80;99.90;;;17.87;100.00;101460.03;4951942;28;20384;-79
2023/08/19 02:43:43;;;;;;;736.08;63.17;;;18.80;99.90;;;17.90;100.00;101461.66;4938319;28;20031;-80
2023/08/19 02:46:09;;;;;;;258.10;35.88;;;18.80;99.90;;;17.91;100.00;101460.72;4947036;28;20252;-79
2023/08/19 02:48:34;;;;;;;282.75;35.80;;;18.80;99.90;;;17.93;100.00;101458.81;4948140;28;20125;-79
2023/08/19 02:51:00;;;;;;;181.00;27.50;;;18.80;99.90;;;17.93;100.00;101469.47;4951629;28;20058;-79
2023/08/19 02:53:28;;;;;;;260.90;37.03;;;18.80;99.90;;;17.86;100.00;101462.81;4962152;28;20114;-79
2023/08/19 02:55:54;;;;;;;109.90;25.13;;;18.70;99.90;;;17.85;100.00;101466.44;4939353;28;20042;-81
2023/08/19 02:58:23;;;;;;;205.20;26.15;;;18.70;99.90;;;17.87;100.00;101469.84;4953590;28;20027;-80
2023/08/19 03:00:49;;;;;;;120.10;25.15;;;18.70;99.90;;;17.77;100.00;101459.75;4964848;28;20039;-82
2023/08/19 03:03:16;;;;;;;147.77;30.17;;;18.70;99.90;;;17.82;100.00;101468.34;4953935;28;20034;-79
2023/08/19 03:05:42;;;;;;;69.70;20.90;;;18.70;99.90;;;17.85;100.00;101461.94;4940770;28;20046;-81
2023/08/19 03:08:09;;;;;;;185.20;30.83;;;18.70;99.90;;;17.87;100.00;101456.53;4940600;28;20043;-79
2023/08/19 03:10:36;;;;;;;45.25;18.75;;;18.70;99.90;;;17.85;100.00;101450.44;4958657;28;20035;-79
2023/08/19 03:13:06;;;;;;;106.57;25.13;;;18.70;99.90;;;17.85;100.00;101459.28;4952060;28;20575;-81
2023/08/19 03:15:35;;;;;;;40.60;17.95;;;18.70;99.90;;;17.83;100.00;101470.03;4956852;28;20034;-80
2023/08/19 03:18:01;;;;;;;102.97;26.13;;;18.70;99.90;;;17.81;100.00;101463.91;4960099;28;20126;-79
2023/08/19 03:20:32;;;;;;;167.68;33.72;;;18.70;99.90;;;17.84;100.00;101476.25;4943814;28;20023;-80
2023/08/19 03:22:58;;;;;;;43.83;18.60;;;18.70;99.90;;;17.79;100.00;101467.66;4944898;28;20432;-79
2023/08/19 03:25:23;;;;;;;73.50;23.50;;;18.60;99.90;;;17.80;100.00;101472.88;4955181;28;20118;-81
2023/08/19 03:27:49;;;;;;;66.97;22.67;;;18.70;99.90;;;17.80;100.00;101475.53;4954818;28;20042;-81
2023/08/19 03:30:15;;;;;;;205.35;28.98;;;18.60;99.90;;;17.77;100.00;101480.22;4940088;28;20120;-81
2023/08/19 03:32:41;;;;;;;241.98;30.98;;;18.60;99.90;;;17.74;100.00;101486.59;4956490;28;20063;-80
2023/08/19 03:35:07;;;;;;;111.45;25.60;;;18.60;99.90;;;17.74;100.00;101480.41;4968194;28;20073;-79
2023/08/19 03:37:35;;;;;;;34.22;15.65;;;18.60;99.90;;;17.75;100.00;101474.13;4958351;28;20454;-80
2023/08/19 03:40:01;;;;;;;149.95;24.35;;;18.60;99.90;;;17.72;100.00;101471.66;4954163;28;20046;-81
2023/08/19 03:42:27;;;;;;;41.53;14.10;;;18.60;99.90;;;17.70;100.00;101470.91;4958128;28;20207;-79
2023/08/19 03:44:53;;;;;;;119.65;23.40;;;18.60;99.90;;;17.72;100.00;101477.00;4957231;28;20117;-80
2023/08/19 03:47:19;;;;;;;21.25;12.82;;;18.60;99.90;;;17.71;100.00;101470.81;4958450;28;20034;-79
2023/08/19 03:49:45;;;;;;;22.30;13.20;;;18.60;99.90;;;17.73;100.00;101462.72;4939915;28;20031;-79
2023/08/19 03:52:11;;;;;;;30.27;15.18;;;18.60;99.90;;;17.74;100.00;101459.97;4956795;28;20066;-81
2023/08/19 03:54:37;;;;;;;43.88;17.65;;;18.60;99.90;;;17.75;100.00;101460.81;4970462;28;20034;-79
2023/08/19 03:57:05;;;;;;;122.47;23.08;;;18.60;99.90;;;17.76;100.00;101470.53;4956820;28;20037;-80
2023/08/19 03:59:32;;;;;;;79.38;21.58;;;18.60;99.90;;;17.77;100.00;101472.22;4941712;28;20027;-81
2023/08/19 04:01:58;;;;;;;58.13;20.10;;;18.60;99.90;;;17.76;100.00;101474.03;4951307;28;20064;-81
2023/08/19 04:04:24;;;;;;;65.13;19.52;;;18.60;99.90;;;17.76;100.00;101468.72;4938215;28;20848;-80
2023/08/19 04:09:22;;;;;;;53.40;17.67;;;18.60;99.90;;;17.85;100.00;101477.94;4964877;28;20054;-81
2023/08/19 04:11:51;;;;;;;118.93;25.88;;;18.70;99.90;;;17.88;100.00;101472.41;4951269;28;20027;-79
2023/08/19 04:14:17;;;;;;;70.53;21.10;;;18.70;99.90;;;17.95;100.00;101479.06;4954665;28;20407;-80
2023/08/19 04:16:43;;;;;;;79.50;18.45;;;18.80;99.90;;;18.07;100.00;101490.69;4932777;28;20045;-82
2023/08/19 04:19:08;;;;;;;63.08;18.33;;;18.80;99.90;;;18.16;100.00;101487.44;4955479;28;20063;-80
2023/08/19 04:21:34;;;;;;;119.85;22.67;;;19.00;99.90;;;18.27;100.00;101476.03;4946398;28;20027;-79
2023/08/19 04:24:03;;;;;;;126.60;23.10;;;19.00;99.90;;;18.36;100.00;101483.44;4967934;28;20031;-79
2023/08/19 04:26:29;;;;;;;165.43;26.80;;;19.10;99.90;;;18.45;100.00;101481.97;4951074;28;20051;-79
2023/08/19 04:28:54;;;;;;;79.07;18.13;;;19.20;99.90;;;18.52;100.00;101485.06;4944040;28;20506;-82
2023/08/19 04:31:20;;;;;;;228.63;27.33;;;19.30;99.90;;;18.64;100.00;101485.06;4967969;28;20054;-80
2023/08/19 04:33:46;;;;;;;296.50;29.88;;;19.30;99.90;;;18.63;100.00;101480.69;4965697;28;20046;-79
2023/08/19 04:36:14;;;;;;;265.63;30.75;;;19.40;99.90;;;18.70;100.00;101481.13;4968560;28;20031;-81
2023/08/19 04:38:40;;;;;;;170.77;24.58;;;19.40;99.90;;;18.78;100.00;101477.97;4941780;28;20035;-80
2023/08/19 04:41:06;;;;;;;227.82;27.38;;;19.50;99.90;;;18.85;100.00;101469.44;4947306;28;20041;-80
2023/08/19 04:43:31;;;;;;;123.57;23.35;;;19.60;99.90;;;18.93;100.00;101471.56;4957072;28;20054;-79
2023/08/19 04:45:57;;;;;;;158.70;25.73;;;19.70;99.90;;;19.01;100.00;101481.72;4949689;28;20054;-81
2023/08/19 04:48:24;;;;;;;133.48;25.33;;;19.70;99.90;;;19.04;100.00;101490.34;4938362;28;20055;-81
2023/08/19 04:50:49;;;;;;;61.60;21.52;;;19.80;99.90;;;19.11;100.00;101489.91;4956689;28;20027;-79
2023/08/19 04:53:21;;;;;;;87.45;24.67;;;19.80;99.90;;;18.98;100.00;101481.91;4955805;28;20524;-80
2023/08/19 04:55:47;;;;;;;66.82;23.20;;;19.80;99.90;;;19.13;100.00;101487.97;4939259;28;20125;-81
2023/08/19 04:58:13;;;;;;;51.92;20.63;;;19.90;99.90;;;19.28;100.00;101489.56;4936208;28;20063;-80
2023/08/19 05:00:39;;;;;;;52.75;20.95;;;20.00;99.90;;;19.53;100.00;101494.00;4955391;28;20022;-80
2023/08/19 05:03:04;;;;;;;40.08;20.23;;;20.10;99.90;;;19.51;100.00;101489.75;4941636;28;20051;-81
2023/08/19 05:05:30;;;;;;;48.50;20.88;;;20.20;99.90;;;19.55;100.00;101497.41;4955592;28;20029;-81
2023/08/19 05:07:56;;;;;;;49.45;22.30;;;20.20;99.90;;;19.60;100.00;101495.25;4939630;28;20031;-80
2023/08/19 05:10:24;;;;;;;38.70;18.63;;;20.20;99.90;;;19.56;100.00;101496.44;4941244;28;20034;-81
2023/08/19 05:12:50;;;;;;;30.95;18.17;;;20.30;99.90;;;19.65;100.00;101498.47;4966851;28;20026;-80
2023/08/19 05:15:15;;;;;;;39.17;19.83;;;20.30;99.90;;;19.66;100.00;101497.50;4955863;28;20067;-81
2023/08/19 05:17:41;;;;;;;44.15;20.65;;;20.30;99.90;;;19.76;100.00;101503.06;4956061;28;20051;-80
2023/08/19 05:20:07;;;;;;;38.40;19.92;;;20.40;99.90;;;19.98;100.00;101501.47;4936093;28;20116;-79
2023/08/19 05:22:34;;;;;;;33.13;18.77;;;20.50;99.90;;;20.14;100.00;101509.22;4966090;28;20709;-81
2023/08/19 05:25:09;;;;;;;26.20;16.42;;;20.70;99.90;;;21.06;100.00;101516.44;4954768;28;20076;-81
2023/08/19 05:27:35;;;;;;;25.98;15.50;;;21.20;99.90;;;21.90;100.00;101519.56;4955036;28;20412;-77
2023/08/19 05:30:04;;;;;;;29.40;15.82;;;21.60;99.90;;;22.02;100.00;101515.00;4961517;28;20879;-81
2023/08/19 05:32:30;;;;;;;21.85;14.50;;;21.70;99.90;;;21.62;100.00;101514.72;4953526;28;20042;-81
2023/08/19 05:34:59;;;;;;;31.52;16.95;;;21.70;99.90;;;21.26;100.00;101497.94;4953939;28;20034;-79
2023/08/19 05:37:24;;;;;;;29.45;15.30;;;21.60;99.90;;;21.03;100.00;101500.59;4951530;28;20041;-82
2023/08/19 05:39:50;;;;;;;30.42;15.60;;;21.50;99.90;;;20.87;100.00;101495.59;4951161;28;20035;-83
2023/08/19 05:42:16;;;;;;;21.77;14.70;;;21.40;99.90;;;20.77;100.00;101499.09;4954489;28;20038;-80
2023/08/19 05:44:42;;;;;;;29.05;16.27;;;21.30;99.90;;;20.62;100.00;101493.09;4948642;28;20064;-81
2023/08/19 05:47:09;;;;;;;29.40;16.15;;;;;;;20.61;100.00;101504.78;4934536;28;20027;-80
2023/08/19 05:49:37;;;;;;;32.95;17.77;;;21.20;99.90;;;20.61;100.00;101500.28;4967232;28;20463;-80
2023/08/19 05:52:03;;;;;;;31.25;17.42;;;21.20;99.90;;;20.77;100.00;101509.81;4950034;28;20388;-81
2023/08/19 05:54:29;;;;;;;30.08;16.67;;;21.30;99.90;;;21.20;100.00;101501.94;4955407;28;20042;-79
2023/08/19 05:56:55;;;;;;;25.70;15.32;;;21.70;99.90;;;23.60;99.77;101526.63;4972473;28;20057;-80
2023/08/19 05:59:21;;;;;;;19.25;13.52;;;22.90;99.90;;;26.54;82.15;101540.00;4956137;28;20110;-82
2023/08/19 06:01:46;;;;;;;16.25;12.45;;;24.40;99.90;;;28.94;70.68;101550.53;4955139;28;20058;-82
2023/08/19 06:04:15;;;;;;;16.23;11.65;;;26.00;99.90;;;29.81;66.85;101556.03;4951910;28;20090;-82
2023/08/19 06:06:42;;;;;;;16.38;10.80;;;27.10;99.90;;;29.89;64.78;101557.84;4950894;28;20491;-82
2023/08/19 06:09:09;;;;;;;12.13;9.93;;;27.70;99.90;;;30.14;63.93;101563.97;4952033;28;20050;-80
2023/08/19 06:11:45;;;;;;;13.40;10.25;;;28.30;99.90;;;31.37;60.56;101571.03;4955366;28;20125;-82
2023/08/19 06:14:11;;;;;;;13.07;9.38;;;29.10;99.90;;;32.18;58.23;101576.47;4954939;28;20030;-82
2023/08/19 06:16:37;;;;;;;13.68;9.82;;;29.70;99.90;;;32.67;56.59;101578.41;4957438;28;20058;-82
2023/08/19 06:19:03;;;;;;;12.00;9.25;;;29.90;99.90;;;32.16;56.70;101577.69;4956171;28;20113;-84
2023/08/19 06:21:28;;;;;;;13.07;9.57;;;29.80;99.90;;;30.91;58.19;101575.78;4957703;28;20023;-82
2023/08/19 06:23:54;;;;;;;12.27;9.80;;;29.40;99.90;;;29.09;62.36;101557.94;4942702;28;20777;-82
2023/08/19 06:26:25;;;;;;;14.35;10.45;;;28.50;99.90;;;27.37;66.78;101547.72;4940632;28;20059;-82
2023/08/19 06:28:51;;;;;;;13.32;10.40;;;27.70;99.90;;;26.80;68.98;101549.03;4937403;28;20109;-82
2023/08/19 06:31:17;;;;;;;14.43;10.45;;;27.10;99.90;;;26.96;70.09;101536.63;4956258;28;20427;-81
2023/08/19 06:33:44;;;;;;;13.07;9.68;;;27.10;99.90;;;28.00;66.93;101541.00;4938808;28;20026;-83
2023/08/19 06:36:22;;;;;;;15.25;9.50;;;27.40;99.90;;;28.38;65.25;101544.94;4954184;28;20475;-80
2023/08/19 06:38:58;;;;;;;10.52;8.90;;;27.70;99.90;;;29.25;64.66;101552.50;4952226;28;20491;-80
2023/08/19 06:41:24;;;;;;;12.55;9.80;;;27.90;99.90;;;28.02;66.83;101545.25;4939028;28;20045;-83
2023/08/19 06:43:51;;;;;;;12.30;9.35;;;27.70;99.90;;;28.69;65.35;101560.56;4939902;28;20027;-82
2023/08/19 06:46:19;;;;;;;14.70;9.68;;;28.40;99.90;;;30.64;61.03;101559.84;4948013;28;20046;-82
2023/08/19 06:48:48;;;;;;;13.43;9.10;;;29.20;99.90;;;31.31;58.83;101577.22;4950770;28;20031;-82
2023/08/19 06:51:14;;;;;;;13.13;8.95;;;29.70;99.90;;;31.36;58.19;101571.22;4955673;28;20034;-83
2023/08/19 06:53:40;;;;;;;16.08;8.73;;;30.30;99.90;;;31.95;57.00;101582.06;4939672;28;20035;-81
2023/08/19 06:56:41;;;;;;;10.52;7.63;;;30.90;99.90;;;32.61;54.52;101575.63;4955981;28;20039;-81
2023/08/19 06:59:38;;;;;;;13.52;8.15;;;32.00;99.90;;;34.10;52.04;101595.22;4947209;28;20388;-80
2023/08/19 07:02:11;;;;;;;11.10;6.88;;;33.10;99.90;;;34.89;50.84;101601.81;4968692;28;20055;-82
2023/08/19 07:04:37;;;;;;;10.48;6.95;;;33.90;99.90;;;35.44;49.00;101617.13;4951622;28;20144;-80
2023/08/19 07:07:04;;;;;;;12.77;6.70;;;34.20;99.90;;;35.42;49.02;101621.97;4960481;28;20031;-82
2023/08/19 07:09:37;;;;;;;15.27;7.30;;;34.40;99.90;;;34.86;49.00;101618.69;4969091;28;20097;-82
2023/08/19 07:12:03;;;;;;;7.63;6.30;;;34.00;99.90;;;33.88;50.62;101607.31;4955750;28;20039;-82
2023/08/19 07:14:33;;;;;;;8.68;6.20;;;34.10;99.90;;;34.49;50.25;101610.03;4938277;28;20023;-82
2023/08/19 07:17:05;;;;;;;9.98;6.45;;;34.20;99.90;;;34.18;50.78;101607.00;4950499;28;20099;-80
2023/08/19 07:19:37;;;;;;;10.85;6.22;;;34.50;99.90;;;34.84;49.88;101612.56;4954646;28;20083;-81
2023/08/19 07:22:09;;;;;;;8.90;5.68;;;35.00;99.90;;;35.93;47.56;101616.53;4953240;28;20410;-82
2023/08/19 07:24:35;;;;;;;9.68;6.22;;;35.40;99.20;;;35.78;47.50;101629.66;4955314;28;20077;-80
2023/08/19 07:27:04;;;;;;;12.75;6.10;;;35.50;99.80;;;35.78;47.80;101629.66;4946388;28;20039;-77
2023/08/19 07:29:30;;;;;;;7.85;6.00;;;35.80;97.80;;;36.07;46.38;101632.88;4935380;28;20030;-79
2023/08/19 07:32:05;;;;;;;7.72;5.60;;;36.30;97.50;;;36.64;45.77;101638.50;4951653;28;20033;-80
2023/08/19 07:34:31;;;;;;;8.50;5.97;;;36.60;97.70;;;36.81;45.11;101647.03;4959230;28;20031;-81
2023/08/19 07:36:56;;;;;;;12.85;6.40;;;37.10;96.60;;;37.26;44.49;101646.81;4951498;28;20427;-81
2023/08/19 07:39:23;;;;;;;9.30;7.05;;;37.10;94.80;;;36.20;45.32;101642.97;4949888;28;20062;-83
2023/08/19 07:41:56;;;;;;;11.55;6.45;;;37.00;94.60;;;36.19;44.88;101638.56;4939393;28;20047;-83
2023/08/19 07:44:22;;;;;;;13.95;6.90;;;37.20;95.90;;;37.10;44.28;101648.25;4947225;28;20063;-81
2023/08/19 07:46:47;;;;;;;10.13;6.95;;;37.10;93.90;;;36.10;44.93;101644.25;4953481;28;20066;-81
2023/08/19 07:49:13;;;;;;;8.10;6.00;;;37.10;95.10;;;36.55;44.26;101638.75;4957943;28;20070;-82
2023/08/19 07:51:46;;;;;;;12.80;7.05;;;37.30;95.40;;;37.08;43.74;101645.69;4957733;28;20063;-81
2023/08/19 07:54:15;;;;;;;15.43;6.78;;;37.40;94.50;;;36.93;44.17;101640.59;4954919;28;20043;-82
2023/08/19 07:56:40;;;;;;;13.35;6.82;;;37.50;95.30;;;37.38;44.11;101644.16;4940687;28;20022;-82
2023/08/19 07:59:06;;;;;;;10.73;6.35;;;37.80;95.00;;;37.70;42.87;101650.38;4957885;28;20103;-81
2023/08/19 08:01:38;;;;;;;9.07;6.50;;;38.00;94.10;;;37.72;42.49;101640.84;4941771;28;20255;-82
2023/08/19 08:04:05;;;;;;;8.45;6.30;;;38.10;93.70;;;37.84;42.36;101648.28;4940624;28;20033;-83
2023/08/19 08:06:30;;;;;;;10.70;6.57;;;37.40;93.00;;;36.05;44.34;101632.28;4942711;28;20057;-80
2023/08/19 08:09:02;;;;;;;11.07;7.10;;;37.00;94.20;;;36.07;44.13;101616.44;4953027;28;20035;-81
2023/08/19 08:11:30;;;;;;;8.75;6.20;;;36.30;94.90;;;35.12;46.47;101606.84;4962589;28;20030;-82
2023/08/19 08:14:01;;;;;;;13.35;6.60;;;35.90;94.60;;;34.76;47.00;101598.28;4964035;28;20062;-83
2023/08/19 08:16:30;;;;;;;12.38;5.93;;;35.30;96.20;;;34.17;48.54;101575.25;4981422;28;20041;-82
2023/08/19 08:18:58;;;;;;;11.13;6.47;;;35.30;95.60;;;34.45;47.70;101581.41;4944868;28;20023;-84
2023/08/19 08:21:27;;;;;;;12.88;6.78;;;35.60;96.60;;;35.24;46.58;101585.16;4939614;29;20039;-81
2023/08/19 08:24:03;;;;;;;11.77;6.85;;;35.60;95.20;;;35.05;46.44;101591.50;4935207;29;20054;-81
2023/08/19 08:26:29;;;;;;;;;;;35.50;95.80;;;33.68;48.00;101578.03;4935739;29;20039;-80
2023/08/19 08:29:02;;;;;;;8.33;6.57;;;35.10;96.80;;;34.38;47.66;101575.06;4953523;29;19914;-82
2023/08/19 08:31:30;;;;;;;10.57;7.35;;;35.30;96.80;;;35.07;47.16;101578.44;4914760;29;20507;-81
2023/08/19 08:33:59;;;;;;;8.90;7.07;;;35.40;96.60;;;35.10;46.07;101572.56;4911221;29;20407;-82
2023/08/19 08:36:25;;;;;;;11.85;6.78;;;34.80;95.80;;;33.95;48.24;101553.53;4916005;29;20304;-82
2023/08/19 08:39:05;;;;;;;10.02;6.68;;;34.40;95.80;;;33.44;49.32;101551.25;4919217;29;20050;-81
2023/08/19 08:41:39;;;;;;;9.88;6.75;;;34.20;96.50;;;33.76;48.29;101548.84;4931279;29;20035;-80
2023/08/19 08:44:14;;;;;;;10.07;6.40;;;34.30;97.40;;;34.31;47.82;101555.09;4932992;29;20179;-81
2023/08/19 08:46:47;;;;;;;11.55;5.95;;;34.50;97.40;;;34.52;48.01;101554.91;4927705;29;20047;-81
2023/08/19 08:49:17;;;;;;;9.38;6.38;;;34.40;96.30;;;33.95;48.23;101558.16;4932845;29;20194;-82
2023/08/19 08:51:52;;;;;;;11.45;6.70;;;34.20;96.80;;;33.69;48.44;101538.78;4930429;28;20094;-83
2023/08/19 08:54:29;;;;;;;8.65;6.15;;;33.90;96.50;;;33.52;48.69;101534.66;4953124;28;20027;-82
2023/08/19 08:57:01;;;;;;;10.82;6.18;;;33.70;96.90;;;33.15;49.31;101536.81;4948892;28;20051;-83
2023/08/19 08:59:30;;;;;;;7.63;6.10;;;33.20;97.60;;;32.47;50.97;101526.41;4954610;28;20030;-82
2023/08/19 09:01:58;;;;;;;7.28;5.82;;;32.90;97.50;;;32.18;51.29;101532.88;4952181;28;20035;-83
2023/08/19 09:04:25;;;;;;;8.90;6.13;;;32.60;98.50;;;31.79;52.81;101523.22;4953941;28;20110;-82
2023/08/19 09:07:49;;;;;;;9.93;6.10;;;32.10;98.90;;;31.17;53.50;101519.06;4954907;28;20081;-83
2023/08/19 09:10:02;;;;;;;6.45;5.60;;;31.70;99.10;;;30.86;54.02;101520.13;4948626;28;20051;-82
2023/08/19 09:12:35;;;;;;;9.85;6.07;;;31.60;99.80;;;31.01;54.72;101517.38;4951567;28;20039;-81
2023/08/19 09:15:16;;;;;;;9.30;5.50;;;31.50;99.00;;;30.88;54.24;101525.34;4956286;28;20069;-82
2023/08/19 09:17:45;;;;;;;9.35;5.70;;;31.40;99.90;;;30.74;54.46;101518.00;4960264;23;20063;-82
2023/08/19 09:20:18;;;;;;;6.20;5.55;;;31.40;99.90;;;30.91;54.21;101526.84;4979377;28;20059;-82
2023/08/19 09:22:44;;;;;;;10.35;6.05;;;31.10;99.90;;;30.46;55.59;101519.44;4961871;28;20573;-82
2023/08/19 09:25:17;;;;;;;17.73;6.00;;;31.00;99.90;;;30.33;55.56;101519.22;4939087;28;20078;-77
2023/08/19 09:27:50;;;;;;;9.23;6.32;;;30.90;99.90;;;30.25;56.52;101511.94;4931919;28;20058;-78
2023/08/19 09:30:18;;;;;;;9.15;6.03;;;31.00;99.90;;;30.40;55.41;101519.31;4950705;28;20034;-78
2023/08/19 09:32:47;;;;;;;6.57;5.82;;;31.00;99.90;;;30.64;54.98;101518.25;4951280;28;20041;-78
2023/08/19 09:35:16;;;;;;;7.65;6.07;;;31.20;99.90;;;30.90;56.08;101528.72;4934103;28;20447;-77
2023/08/19 09:37:42;;;;;;;10.85;5.88;;;31.30;99.80;;;30.85;53.74;101528.41;4951169;28;20074;-78
2023/08/19 09:40:15;;;;;;;8.77;6.03;;;31.40;99.90;;;30.95;55.09;101529.03;4936221;28;20582;-78
2023/08/19 09:42:48;;;;;;;7.95;5.38;;;31.30;99.90;;;30.75;54.97;101517.78;4952002;28;20470;-78
2023/08/19 09:45:22;;;;;;;6.40;5.15;;;31.20;99.90;;;30.52;54.00;101522.44;4951418;28;20114;-78
2023/08/19 09:47:54;;;;;;;11.63;6.13;;;31.20;99.80;;;30.51;54.05;101515.31;4949717;28;20474;-78
2023/08/19 09:50:27;;;;;;;7.25;6.05;;;31.10;99.90;;;30.39;56.50;101501.31;4934425;28;20487;-78
2023/08/19 09:53:02;;;;;;;13.15;5.95;;;30.90;99.90;;;30.27;56.85;101503.59;4946578;28;20512;-79
2023/08/19 09:55:38;;;;;;;10.70;6.22;;;30.90;99.90;;;30.34;57.54;101509.19;4949642;28;20039;-78
2023/08/19 09:58:04;;;;;;;8.20;5.90;;;30.90;99.90;;;30.35;58.22;101502.75;4950403;28;20032;-78
2023/08/19 10:00:33;;;;;;;9.82;5.57;;;31.00;99.90;;;30.48;56.74;101505.69;4945892;28;20086;-78
2023/08/19 10:03:06;;;;;;;12.63;5.82;;;31.00;99.90;;;30.43;55.38;101511.66;4948905;28;20078;-79
2023/08/19 10:05:52;;;;;;;9.00;5.25;;;30.80;99.90;;;30.18;57.48;101508.25;4951180;28;20038;-78
2023/08/19 10:08:32;;;;;;;8.40;5.45;;;30.90;99.90;;;30.40;56.85;101509.28;4961540;28;20057;-77